<?xml version="1.0" encoding="UTF-8" standalone="no" ?>
<gpx xmlns="http://www.topografix.com/GPX/1/1" xmlns:xsi="http://www.w3.org/2001/XMLSchema-instance" xsi:schemaLocation="http://www.topografix.com/GPX/1/1 http://www.topografix.com/GPX/1/1/gpx.xsd" version="1.1" creator="VisuGPX - https://www.visugpx.com">
  <metadata>
    <name>Etape 2 Férel - Les Moûtiers</name>
    <desc><![CDATA[Randonnée vélo Rennes - Hendaye, empruntant la Vélodyssée à partir de Saint-Brevin-Les-Pins. ]]></desc>
  </metadata>
  <trk>
    <name><![CDATA[Sequence 10]]></name>
    <trkseg>
      <trkpt lat="47.31777" lon="-2.16432">
        <ele>2</ele>
        <time>2016-07-22T06:19:42Z</time>
      </trkpt>
      <trkpt lat="47.31776" lon="-2.1644">
        <ele>1</ele>
        <time>2016-07-22T06:19:51Z</time>
      </trkpt>
      <trkpt lat="47.31776" lon="-2.16444">
        <ele>1</ele>
        <time>2016-07-22T06:19:53Z</time>
      </trkpt>
      <trkpt lat="47.31774" lon="-2.1646">
        <ele>1</ele>
        <time>2016-07-22T06:19:57Z</time>
      </trkpt>
      <trkpt lat="47.31771" lon="-2.16489">
        <ele>1</ele>
        <time>2016-07-22T06:20:02Z</time>
      </trkpt>
      <trkpt lat="47.31767" lon="-2.1652">
        <ele>-1</ele>
        <time>2016-07-22T06:20:07Z</time>
      </trkpt>
      <trkpt lat="47.31761" lon="-2.16569">
        <ele>2</ele>
        <time>2016-07-22T06:20:14Z</time>
      </trkpt>
      <trkpt lat="47.3175" lon="-2.16618">
        <ele>2</ele>
        <time>2016-07-22T06:20:21Z</time>
      </trkpt>
      <trkpt lat="47.31746" lon="-2.16623">
        <ele>3</ele>
        <time>2016-07-22T06:20:22Z</time>
      </trkpt>
      <trkpt lat="47.31732" lon="-2.16656">
        <ele>4</ele>
        <time>2016-07-22T06:20:27Z</time>
      </trkpt>
      <trkpt lat="47.31719" lon="-2.1669">
        <ele>2</ele>
        <time>2016-07-22T06:20:32Z</time>
      </trkpt>
      <trkpt lat="47.31701" lon="-2.16727">
        <ele>-1</ele>
        <time>2016-07-22T06:20:38Z</time>
      </trkpt>
      <trkpt lat="47.31687" lon="-2.1675">
        <ele>1</ele>
        <time>2016-07-22T06:20:42Z</time>
      </trkpt>
      <trkpt lat="47.31671" lon="-2.16776">
        <ele>3</ele>
        <time>2016-07-22T06:20:47Z</time>
      </trkpt>
      <trkpt lat="47.31643" lon="-2.1681">
        <ele>3</ele>
        <time>2016-07-22T06:20:54Z</time>
      </trkpt>
      <trkpt lat="47.31632" lon="-2.16824">
        <ele>4</ele>
        <time>2016-07-22T06:20:57Z</time>
      </trkpt>
      <trkpt lat="47.31615" lon="-2.16851">
        <ele>8</ele>
        <time>2016-07-22T06:21:02Z</time>
      </trkpt>
      <trkpt lat="47.31592" lon="-2.16874">
        <ele>10</ele>
        <time>2016-07-22T06:21:07Z</time>
      </trkpt>
      <trkpt lat="47.31554" lon="-2.16923">
        <ele>17</ele>
        <time>2016-07-22T06:21:16Z</time>
      </trkpt>
      <trkpt lat="47.31541" lon="-2.16939">
        <ele>16</ele>
        <time>2016-07-22T06:21:19Z</time>
      </trkpt>
      <trkpt lat="47.31515" lon="-2.16972">
        <ele>16</ele>
        <time>2016-07-22T06:21:25Z</time>
      </trkpt>
      <trkpt lat="47.3149" lon="-2.17001">
        <ele>11</ele>
        <time>2016-07-22T06:21:31Z</time>
      </trkpt>
      <trkpt lat="47.31485" lon="-2.17006">
        <ele>11</ele>
        <time>2016-07-22T06:21:32Z</time>
      </trkpt>
      <trkpt lat="47.31465" lon="-2.17029">
        <ele>13</ele>
        <time>2016-07-22T06:21:37Z</time>
      </trkpt>
      <trkpt lat="47.31445" lon="-2.17051">
        <ele>11</ele>
        <time>2016-07-22T06:21:42Z</time>
      </trkpt>
      <trkpt lat="47.31427" lon="-2.17076">
        <ele>13</ele>
        <time>2016-07-22T06:21:47Z</time>
      </trkpt>
      <trkpt lat="47.31407" lon="-2.17098">
        <ele>13</ele>
        <time>2016-07-22T06:21:52Z</time>
      </trkpt>
      <trkpt lat="47.31386" lon="-2.17122">
        <ele>12</ele>
        <time>2016-07-22T06:21:57Z</time>
      </trkpt>
      <trkpt lat="47.31363" lon="-2.17153">
        <ele>13</ele>
        <time>2016-07-22T06:22:03Z</time>
      </trkpt>
      <trkpt lat="47.31338" lon="-2.17183">
        <ele>24</ele>
        <time>2016-07-22T06:22:09Z</time>
      </trkpt>
      <trkpt lat="47.3132" lon="-2.17203">
        <ele>25</ele>
        <time>2016-07-22T06:22:13Z</time>
      </trkpt>
      <trkpt lat="47.31305" lon="-2.17223">
        <ele>20</ele>
        <time>2016-07-22T06:22:17Z</time>
      </trkpt>
      <trkpt lat="47.31282" lon="-2.17247">
        <ele>16</ele>
        <time>2016-07-22T06:22:22Z</time>
      </trkpt>
      <trkpt lat="47.31265" lon="-2.17273">
        <ele>15</ele>
        <time>2016-07-22T06:22:27Z</time>
      </trkpt>
      <trkpt lat="47.31227" lon="-2.17316">
        <ele>5</ele>
        <time>2016-07-22T06:22:36Z</time>
      </trkpt>
      <trkpt lat="47.31223" lon="-2.17322">
        <ele>5</ele>
        <time>2016-07-22T06:22:37Z</time>
      </trkpt>
      <trkpt lat="47.31202" lon="-2.17344">
        <ele>1</ele>
        <time>2016-07-22T06:22:42Z</time>
      </trkpt>
      <trkpt lat="47.31174" lon="-2.17376">
        <ele>7</ele>
        <time>2016-07-22T06:22:49Z</time>
      </trkpt>
      <trkpt lat="47.31162" lon="-2.17388">
        <ele>4</ele>
        <time>2016-07-22T06:22:52Z</time>
      </trkpt>
      <trkpt lat="47.31138" lon="-2.17416">
        <ele>5</ele>
        <time>2016-07-22T06:22:58Z</time>
      </trkpt>
      <trkpt lat="47.3112" lon="-2.1743">
        <ele>-1</ele>
        <time>2016-07-22T06:23:02Z</time>
      </trkpt>
      <trkpt lat="47.31104" lon="-2.17454">
        <ele>3</ele>
        <time>2016-07-22T06:23:07Z</time>
      </trkpt>
      <trkpt lat="47.3109" lon="-2.17475">
        <ele>2</ele>
        <time>2016-07-22T06:23:12Z</time>
      </trkpt>
      <trkpt lat="47.31079" lon="-2.17491">
        <ele>-1</ele>
        <time>2016-07-22T06:23:17Z</time>
      </trkpt>
      <trkpt lat="47.31079" lon="-2.17493">
        <ele>1</ele>
        <time>2016-07-22T06:23:26Z</time>
      </trkpt>
      <trkpt lat="47.31079" lon="-2.17493">
        <ele>1</ele>
        <time>2016-07-22T06:23:27Z</time>
      </trkpt>
    </trkseg>
  </trk>
</gpx>